sensor_id;sensor_type;location;lat;lon;timestamp;temperature;humidity
53599;DHT22;39485;45.702;11.364;2022-08-07T00:01:21;20.60;99.90
53599;DHT22;39485;45.702;11.364;2022-08-07T00:03:46;20.60;99.90
53599;DHT22;39485;45.702;11.364;2022-08-07T00:06:13;20.60;99.90
53599;DHT22;39485;45.702;11.364;2022-08-07T00:08:38;20.70;99.90
53599;DHT22;39485;45.702;11.364;2022-08-07T00:11:05;20.70;99.90
53599;DHT22;39485;45.702;11.364;2022-08-07T00:13:31;20.70;99.90
53599;DHT22;39485;45.702;11.364;2022-08-07T00:15:57;20.80;99.90
53599;DHT22;39485;45.702;11.364;2022-08-07T00:18:26;20.70;99.90
53599;DHT22;39485;45.702;11.364;2022-08-07T00:20:54;20.70;99.90
53599;DHT22;39485;45.702;11.364;2022-08-07T00:23:21;20.80;99.90
53599;DHT22;39485;45.702;11.364;2022-08-07T00:25:48;20.80;99.90
53599;DHT22;39485;45.702;11.364;2022-08-07T00:28:14;20.70;99.90
53599;DHT22;39485;45.702;11.364;2022-08-07T00:30:40;20.80;99.90
53599;DHT22;39485;45.702;11.364;2022-08-07T00:33:05;20.90;99.90
53599;DHT22;39485;45.702;11.364;2022-08-07T00:35:31;20.90;99.90
53599;DHT22;39485;45.702;11.364;2022-08-07T00:37:58;20.90;99.90
53599;DHT22;39485;45.702;11.364;2022-08-07T00:40:24;20.90;99.90
53599;DHT22;39485;45.702;11.364;2022-08-07T00:42:50;20.90;99.90
53599;DHT22;39485;45.702;11.364;2022-08-07T00:45:15;20.90;99.90
53599;DHT22;39485;45.702;11.364;2022-08-07T00:47:41;20.90;99.90
53599;DHT22;39485;45.702;11.364;2022-08-07T00:50:07;21.00;99.90
53599;DHT22;39485;45.702;11.364;2022-08-07T00:52:33;21.00;99.90
53599;DHT22;39485;45.702;11.364;2022-08-07T00:54:59;21.00;99.90
53599;DHT22;39485;45.702;11.364;2022-08-07T00:57:25;20.90;99.90
53599;DHT22;39485;45.702;11.364;2022-08-07T00:59:51;20.90;99.90
53599;DHT22;39485;45.702;11.364;2022-08-07T01:02:17;20.80;99.90
53599;DHT22;39485;45.702;11.364;2022-08-07T01:04:44;20.80;99.90
53599;DHT22;39485;45.702;11.364;2022-08-07T01:07:10;20.80;99.90
53599;DHT22;39485;45.702;11.364;2022-08-07T01:09:36;20.80;99.90
53599;DHT22;39485;45.702;11.364;2022-08-07T01:12:02;20.80;99.90
53599;DHT22;39485;45.702;11.364;2022-08-07T01:14:28;20.80;99.90
53599;DHT22;39485;45.702;11.364;2022-08-07T01:16:54;20.80;99.90
53599;DHT22;39485;45.702;11.364;2022-08-07T01:19:21;20.70;99.90
53599;DHT22;39485;45.702;11.364;2022-08-07T01:21:49;20.80;99.90
53599;DHT22;39485;45.702;11.364;2022-08-07T01:24:16;20.70;99.90
53599;DHT22;39485;45.702;11.364;2022-08-07T01:26:42;20.70;99.90
53599;DHT22;39485;45.702;11.364;2022-08-07T01:29:08;20.70;99.90
53599;DHT22;39485;45.702;11.364;2022-08-07T01:31:36;20.60;99.90
53599;DHT22;39485;45.702;11.364;2022-08-07T01:34:02;20.60;99.90
53599;DHT22;39485;45.702;11.364;2022-08-07T01:36:30;20.60;99.90
53599;DHT22;39485;45.702;11.364;2022-08-07T01:38:56;20.60;99.90
53599;DHT22;39485;45.702;11.364;2022-08-07T01:41:22;20.60;99.90
53599;DHT22;39485;45.702;11.364;2022-08-07T01:43:49;20.60;99.90
53599;DHT22;39485;45.702;11.364;2022-08-07T01:46:16;20.60;99.90
53599;DHT22;39485;45.702;11.364;2022-08-07T01:48:43;20.60;99.90
53599;DHT22;39485;45.702;11.364;2022-08-07T01:51:17;20.50;99.90
53599;DHT22;39485;45.702;11.364;2022-08-07T01:53:46;20.50;99.90
53599;DHT22;39485;45.702;11.364;2022-08-07T01:56:24;20.50;99.90
53599;DHT22;39485;45.702;11.364;2022-08-07T01:59:02;20.50;99.90
53599;DHT22;39485;45.702;11.364;2022-08-07T02:01:34;20.50;99.90
53599;DHT22;39485;45.702;11.364;2022-08-07T02:04:12;20.60;99.90
53599;DHT22;39485;45.702;11.364;2022-08-07T02:06:41;20.50;99.90
53599;DHT22;39485;45.702;11.364;2022-08-07T02:09:09;20.50;99.90
53599;DHT22;39485;45.702;11.364;2022-08-07T02:11:38;20.50;99.90
53599;DHT22;39485;45.702;11.364;2022-08-07T02:14:06;20.40;99.90
53599;DHT22;39485;45.702;11.364;2022-08-07T02:16:35;20.50;99.90
53599;DHT22;39485;45.702;11.364;2022-08-07T02:19:05;20.40;99.90
53599;DHT22;39485;45.702;11.364;2022-08-07T02:21:33;20.40;99.90
53599;DHT22;39485;45.702;11.364;2022-08-07T02:24:00;20.30;99.90
53599;DHT22;39485;45.702;11.364;2022-08-07T02:26:27;20.30;99.90
53599;DHT22;39485;45.702;11.364;2022-08-07T02:28:55;20.30;99.90
53599;DHT22;39485;45.702;11.364;2022-08-07T02:31:22;20.30;99.90
53599;DHT22;39485;45.702;11.364;2022-08-07T02:33:49;20.30;99.90
53599;DHT22;39485;45.702;11.364;2022-08-07T02:36:16;20.30;99.90
53599;DHT22;39485;45.702;11.364;2022-08-07T02:38:44;20.30;99.90
53599;DHT22;39485;45.702;11.364;2022-08-07T02:41:11;20.20;99.90
53599;DHT22;39485;45.702;11.364;2022-08-07T02:43:38;20.30;99.90
53599;DHT22;39485;45.702;11.364;2022-08-07T02:46:06;20.30;99.90
53599;DHT22;39485;45.702;11.364;2022-08-07T02:48:33;20.30;99.90
53599;DHT22;39485;45.702;11.364;2022-08-07T02:51:02;20.20;99.90
53599;DHT22;39485;45.702;11.364;2022-08-07T02:53:33;20.20;99.90
53599;DHT22;39485;45.702;11.364;2022-08-07T02:56:02;20.20;99.90
53599;DHT22;39485;45.702;11.364;2022-08-07T02:58:30;20.20;99.90
53599;DHT22;39485;45.702;11.364;2022-08-07T03:00:57;20.20;99.90
53599;DHT22;39485;45.702;11.364;2022-08-07T03:03:25;20.20;99.90
53599;DHT22;39485;45.702;11.364;2022-08-07T03:05:53;20.20;99.90
53599;DHT22;39485;45.702;11.364;2022-08-07T03:08:21;20.20;99.90
53599;DHT22;39485;45.702;11.364;2022-08-07T03:10:47;20.20;99.90
53599;DHT22;39485;45.702;11.364;2022-08-07T03:13:16;20.20;99.90
53599;DHT22;39485;45.702;11.364;2022-08-07T03:15:43;20.20;99.90
53599;DHT22;39485;45.702;11.364;2022-08-07T03:18:09;20.20;99.90
53599;DHT22;39485;45.702;11.364;2022-08-07T03:20:36;20.20;99.90
53599;DHT22;39485;45.702;11.364;2022-08-07T03:23:03;20.10;99.90
53599;DHT22;39485;45.702;11.364;2022-08-07T03:25:31;20.20;99.90
53599;DHT22;39485;45.702;11.364;2022-08-07T03:27:59;20.10;99.90
53599;DHT22;39485;45.702;11.364;2022-08-07T03:30:26;20.10;99.90
53599;DHT22;39485;45.702;11.364;2022-08-07T03:32:53;20.20;99.90
53599;DHT22;39485;45.702;11.364;2022-08-07T03:35:23;20.10;99.90
53599;DHT22;39485;45.702;11.364;2022-08-07T03:37:54;20.10;99.90
53599;DHT22;39485;45.702;11.364;2022-08-07T03:40:21;20.10;99.90
53599;DHT22;39485;45.702;11.364;2022-08-07T03:42:47;20.10;99.90
53599;DHT22;39485;45.702;11.364;2022-08-07T03:45:14;20.10;99.90
53599;DHT22;39485;45.702;11.364;2022-08-07T03:47:40;20.10;99.90
53599;DHT22;39485;45.702;11.364;2022-08-07T03:50:06;20.10;99.90
53599;DHT22;39485;45.702;11.364;2022-08-07T03:52:32;20.10;99.90
53599;DHT22;39485;45.702;11.364;2022-08-07T03:54:59;20.10;99.90
53599;DHT22;39485;45.702;11.364;2022-08-07T03:57:26;20.10;99.90
53599;DHT22;39485;45.702;11.364;2022-08-07T03:59:54;20.10;99.90
53599;DHT22;39485;45.702;11.364;2022-08-07T04:02:21;20.10;99.90
53599;DHT22;39485;45.702;11.364;2022-08-07T04:04:47;20.10;99.90
53599;DHT22;39485;45.702;11.364;2022-08-07T04:07:17;20.20;99.90
53599;DHT22;39485;45.702;11.364;2022-08-07T04:09:45;20.20;99.90
53599;DHT22;39485;45.702;11.364;2022-08-07T04:12:12;20.10;99.90
53599;DHT22;39485;45.702;11.364;2022-08-07T04:14:38;20.20;99.90
53599;DHT22;39485;45.702;11.364;2022-08-07T04:17:05;20.20;99.90
53599;DHT22;39485;45.702;11.364;2022-08-07T04:19:30;20.10;99.90
53599;DHT22;39485;45.702;11.364;2022-08-07T04:21:57;20.20;99.90
53599;DHT22;39485;45.702;11.364;2022-08-07T04:24:23;20.20;99.90
53599;DHT22;39485;45.702;11.364;2022-08-07T04:26:48;20.20;99.90
53599;DHT22;39485;45.702;11.364;2022-08-07T04:29:14;20.20;99.90
53599;DHT22;39485;45.702;11.364;2022-08-07T04:31:40;20.30;99.90
53599;DHT22;39485;45.702;11.364;2022-08-07T04:34:07;20.30;99.90
53599;DHT22;39485;45.702;11.364;2022-08-07T04:36:33;20.30;99.90
53599;DHT22;39485;45.702;11.364;2022-08-07T04:39:04;20.30;99.90
53599;DHT22;39485;45.702;11.364;2022-08-07T04:41:29;20.30;99.90
53599;DHT22;39485;45.702;11.364;2022-08-07T04:43:55;20.30;99.90
53599;DHT22;39485;45.702;11.364;2022-08-07T04:49:20;20.30;99.90
53599;DHT22;39485;45.702;11.364;2022-08-07T04:57:30;20.20;99.90
53599;DHT22;39485;45.702;11.364;2022-08-07T05:00:14;20.20;99.90
53599;DHT22;39485;45.702;11.364;2022-08-07T05:03:07;20.20;99.90
53599;DHT22;39485;45.702;11.364;2022-08-07T05:05:42;20.10;99.90
53599;DHT22;39485;45.702;11.364;2022-08-07T05:08:14;20.20;99.90
53599;DHT22;39485;45.702;11.364;2022-08-07T05:10:50;20.20;99.90
53599;DHT22;39485;45.702;11.364;2022-08-07T05:13:35;20.10;99.90
53599;DHT22;39485;45.702;11.364;2022-08-07T05:16:08;20.10;99.90
53599;DHT22;39485;45.702;11.364;2022-08-07T05:18:57;20.10;99.90
53599;DHT22;39485;45.702;11.364;2022-08-07T05:21:26;20.10;99.90
53599;DHT22;39485;45.702;11.364;2022-08-07T05:24:02;20.10;99.90
53599;DHT22;39485;45.702;11.364;2022-08-07T05:26:31;20.10;99.90
53599;DHT22;39485;45.702;11.364;2022-08-07T05:29:00;20.10;99.90
53599;DHT22;39485;45.702;11.364;2022-08-07T05:31:30;20.10;99.90
53599;DHT22;39485;45.702;11.364;2022-08-07T05:33:58;20.10;99.90
53599;DHT22;39485;45.702;11.364;2022-08-07T05:36:26;20.20;99.90
53599;DHT22;39485;45.702;11.364;2022-08-07T05:38:54;20.20;99.90
53599;DHT22;39485;45.702;11.364;2022-08-07T05:41:20;20.20;99.90
53599;DHT22;39485;45.702;11.364;2022-08-07T05:43:51;20.20;99.90
53599;DHT22;39485;45.702;11.364;2022-08-07T05:46:21;20.30;99.90
53599;DHT22;39485;45.702;11.364;2022-08-07T05:48:52;20.30;99.90
53599;DHT22;39485;45.702;11.364;2022-08-07T05:51:18;20.30;99.90
53599;DHT22;39485;45.702;11.364;2022-08-07T05:53:45;20.40;99.90
53599;DHT22;39485;45.702;11.364;2022-08-07T05:56:12;20.50;99.90
53599;DHT22;39485;45.702;11.364;2022-08-07T05:58:40;20.50;99.90
53599;DHT22;39485;45.702;11.364;2022-08-07T06:01:09;20.60;99.90
53599;DHT22;39485;45.702;11.364;2022-08-07T06:03:36;20.60;99.90
53599;DHT22;39485;45.702;11.364;2022-08-07T06:06:03;20.60;99.90
53599;DHT22;39485;45.702;11.364;2022-08-07T06:08:30;20.70;99.90
53599;DHT22;39485;45.702;11.364;2022-08-07T06:10:56;20.70;99.90
53599;DHT22;39485;45.702;11.364;2022-08-07T06:13:22;20.70;99.90
53599;DHT22;39485;45.702;11.364;2022-08-07T06:15:48;20.70;99.90
53599;DHT22;39485;45.702;11.364;2022-08-07T06:18:15;20.80;99.90
53599;DHT22;39485;45.702;11.364;2022-08-07T06:20:43;20.80;99.90
53599;DHT22;39485;45.702;11.364;2022-08-07T06:23:09;20.80;99.90
53599;DHT22;39485;45.702;11.364;2022-08-07T06:25:35;20.90;99.90
53599;DHT22;39485;45.702;11.364;2022-08-07T06:28:06;20.90;99.90
53599;DHT22;39485;45.702;11.364;2022-08-07T06:30:36;21.10;99.90
53599;DHT22;39485;45.702;11.364;2022-08-07T06:33:03;21.20;99.90
53599;DHT22;39485;45.702;11.364;2022-08-07T06:35:30;21.40;99.90
53599;DHT22;39485;45.702;11.364;2022-08-07T06:37:55;21.60;99.90
53599;DHT22;39485;45.702;11.364;2022-08-07T06:40:22;21.90;99.90
53599;DHT22;39485;45.702;11.364;2022-08-07T06:42:49;22.00;99.90
53599;DHT22;39485;45.702;11.364;2022-08-07T06:45:17;22.20;99.90
53599;DHT22;39485;45.702;11.364;2022-08-07T06:47:43;22.50;99.90
53599;DHT22;39485;45.702;11.364;2022-08-07T06:50:10;22.70;99.90
53599;DHT22;39485;45.702;11.364;2022-08-07T06:52:37;22.80;99.90
53599;DHT22;39485;45.702;11.364;2022-08-07T06:55:15;22.80;99.90
53599;DHT22;39485;45.702;11.364;2022-08-07T06:57:43;22.80;99.90
53599;DHT22;39485;45.702;11.364;2022-08-07T07:00:10;22.70;99.90
53599;DHT22;39485;45.702;11.364;2022-08-07T07:02:36;22.50;99.90
53599;DHT22;39485;45.702;11.364;2022-08-07T07:05:04;22.40;99.90
53599;DHT22;39485;45.702;11.364;2022-08-07T07:07:29;22.30;99.90
53599;DHT22;39485;45.702;11.364;2022-08-07T07:09:55;22.20;99.90
53599;DHT22;39485;45.702;11.364;2022-08-07T07:12:43;22.20;99.90
53599;DHT22;39485;45.702;11.364;2022-08-07T07:15:12;22.10;99.90
53599;DHT22;39485;45.702;11.364;2022-08-07T07:18:27;22.10;99.90
53599;DHT22;39485;45.702;11.364;2022-08-07T07:20:48;22.00;99.90
53599;DHT22;39485;45.702;11.364;2022-08-07T07:23:15;22.00;99.90
53599;DHT22;39485;45.702;11.364;2022-08-07T07:25:43;22.00;99.90
53599;DHT22;39485;45.702;11.364;2022-08-07T07:28:17;22.00;99.90
53599;DHT22;39485;45.702;11.364;2022-08-07T07:30:49;22.00;99.90
53599;DHT22;39485;45.702;11.364;2022-08-07T07:33:17;22.00;99.90
53599;DHT22;39485;45.702;11.364;2022-08-07T07:35:47;22.00;99.90
53599;DHT22;39485;45.702;11.364;2022-08-07T07:38:14;22.00;99.90
53599;DHT22;39485;45.702;11.364;2022-08-07T07:40:44;22.10;99.90
53599;DHT22;39485;45.702;11.364;2022-08-07T07:43:12;22.10;99.90
53599;DHT22;39485;45.702;11.364;2022-08-07T07:45:39;22.00;99.90
53599;DHT22;39485;45.702;11.364;2022-08-07T07:48:06;22.00;99.90
53599;DHT22;39485;45.702;11.364;2022-08-07T07:50:35;21.90;99.90
53599;DHT22;39485;45.702;11.364;2022-08-07T07:53:02;21.90;99.90
53599;DHT22;39485;45.702;11.364;2022-08-07T07:55:30;21.80;99.90
53599;DHT22;39485;45.702;11.364;2022-08-07T07:57:56;21.80;99.90
53599;DHT22;39485;45.702;11.364;2022-08-07T08:00:24;21.70;99.90
53599;DHT22;39485;45.702;11.364;2022-08-07T08:02:53;21.70;99.90
53599;DHT22;39485;45.702;11.364;2022-08-07T08:05:20;21.60;99.90
53599;DHT22;39485;45.702;11.364;2022-08-07T08:07:47;21.50;99.90
53599;DHT22;39485;45.702;11.364;2022-08-07T08:10:15;21.50;99.90
53599;DHT22;39485;45.702;11.364;2022-08-07T08:12:42;21.40;99.90
53599;DHT22;39485;45.702;11.364;2022-08-07T08:15:10;21.30;99.90
53599;DHT22;39485;45.702;11.364;2022-08-07T08:17:35;21.20;99.90
53599;DHT22;39485;45.702;11.364;2022-08-07T08:20:06;21.20;99.90
53599;DHT22;39485;45.702;11.364;2022-08-07T08:22:38;21.20;99.90
53599;DHT22;39485;45.702;11.364;2022-08-07T08:25:28;21.10;99.90
53599;DHT22;39485;45.702;11.364;2022-08-07T08:28:23;21.00;99.90
53599;DHT22;39485;45.702;11.364;2022-08-07T08:30:56;20.90;99.90
53599;DHT22;39485;45.702;11.364;2022-08-07T08:33:24;20.90;99.90
53599;DHT22;39485;45.702;11.364;2022-08-07T08:35:52;20.80;99.90
53599;DHT22;39485;45.702;11.364;2022-08-07T08:38:22;20.70;99.90
53599;DHT22;39485;45.702;11.364;2022-08-07T08:41:12;20.70;99.90
53599;DHT22;39485;45.702;11.364;2022-08-07T08:44:01;20.70;99.90
53599;DHT22;39485;45.702;11.364;2022-08-07T08:52:23;20.60;99.90
53599;DHT22;39485;45.702;11.364;2022-08-07T08:57:43;20.60;99.90
53599;DHT22;39485;45.702;11.364;2022-08-07T09:00:11;20.60;99.90
53599;DHT22;39485;45.702;11.364;2022-08-07T09:05:25;20.60;99.90
53599;DHT22;39485;45.702;11.364;2022-08-07T09:19:16;20.60;99.90
53599;DHT22;39485;45.702;11.364;2022-08-07T09:25:05;20.60;99.90
53599;DHT22;39485;45.702;11.364;2022-08-07T09:27:43;20.60;99.90
53599;DHT22;39485;45.702;11.364;2022-08-07T09:30:11;20.70;99.90
53599;DHT22;39485;45.702;11.364;2022-08-07T09:35:37;20.80;99.90
53599;DHT22;39485;45.702;11.364;2022-08-07T09:53:44;20.80;99.90
53599;DHT22;39485;45.702;11.364;2022-08-07T09:59:16;20.80;99.90
53599;DHT22;39485;45.702;11.364;2022-08-07T10:01:54;20.80;99.90
53599;DHT22;39485;45.702;11.364;2022-08-07T10:32:33;21.20;99.90
53599;DHT22;39485;45.702;11.364;2022-08-07T10:41:38;21.50;99.90
53599;DHT22;39485;45.702;11.364;2022-08-07T10:46:31;21.60;99.90
53599;DHT22;39485;45.702;11.364;2022-08-07T10:49:39;21.70;99.90
53599;DHT22;39485;45.702;11.364;2022-08-07T10:52:17;21.80;99.90
53599;DHT22;39485;45.702;11.364;2022-08-07T10:54:58;21.90;99.90
53599;DHT22;39485;45.702;11.364;2022-08-07T10:57:47;22.00;99.90
53599;DHT22;39485;45.702;11.364;2022-08-07T11:00:15;22.10;99.90
53599;DHT22;39485;45.702;11.364;2022-08-07T11:03:10;22.10;99.90
53599;DHT22;39485;45.702;11.364;2022-08-07T11:06:10;22.20;99.90
53599;DHT22;39485;45.702;11.364;2022-08-07T11:11:08;22.50;99.90
53599;DHT22;39485;45.702;11.364;2022-08-07T11:16:32;22.70;99.90
53599;DHT22;39485;45.702;11.364;2022-08-07T11:19:37;22.90;99.90
53599;DHT22;39485;45.702;11.364;2022-08-07T11:22:11;23.00;99.90
53599;DHT22;39485;45.702;11.364;2022-08-07T11:25:12;23.10;99.90
53599;DHT22;39485;45.702;11.364;2022-08-07T11:28:11;23.20;99.90
53599;DHT22;39485;45.702;11.364;2022-08-07T11:33:50;23.30;99.90
53599;DHT22;39485;45.702;11.364;2022-08-07T11:36:37;23.30;99.90
53599;DHT22;39485;45.702;11.364;2022-08-07T11:39:19;23.30;99.90
53599;DHT22;39485;45.702;11.364;2022-08-07T11:42:16;23.30;99.90
53599;DHT22;39485;45.702;11.364;2022-08-07T11:50:26;23.30;99.90
53599;DHT22;39485;45.702;11.364;2022-08-07T12:06:48;23.40;99.90
53599;DHT22;39485;45.702;11.364;2022-08-07T12:10:12;23.30;99.90
53599;DHT22;39485;45.702;11.364;2022-08-07T12:12:43;23.30;99.90
53599;DHT22;39485;45.702;11.364;2022-08-07T12:17:53;23.30;99.90
53599;DHT22;39485;45.702;11.364;2022-08-07T12:20:26;23.30;99.90
53599;DHT22;39485;45.702;11.364;2022-08-07T12:25:54;23.30;99.90
53599;DHT22;39485;45.702;11.364;2022-08-07T12:28:39;23.30;99.90
53599;DHT22;39485;45.702;11.364;2022-08-07T12:31:34;23.40;99.90
53599;DHT22;39485;45.702;11.364;2022-08-07T12:34:01;23.40;99.90
53599;DHT22;39485;45.702;11.364;2022-08-07T12:36:28;23.40;99.90
53599;DHT22;39485;45.702;11.364;2022-08-07T12:38:55;23.40;99.90
53599;DHT22;39485;45.702;11.364;2022-08-07T12:41:25;23.40;99.90
53599;DHT22;39485;45.702;11.364;2022-08-07T12:43:54;23.40;99.90
53599;DHT22;39485;45.702;11.364;2022-08-07T12:46:59;23.40;99.90
53599;DHT22;39485;45.702;11.364;2022-08-07T12:49:41;23.40;99.90
53599;DHT22;39485;45.702;11.364;2022-08-07T12:52:14;23.30;99.90
53599;DHT22;39485;45.702;11.364;2022-08-07T12:55:07;23.30;99.90
53599;DHT22;39485;45.702;11.364;2022-08-07T12:57:36;23.30;99.90
53599;DHT22;39485;45.702;11.364;2022-08-07T13:00:04;23.40;99.90
53599;DHT22;39485;45.702;11.364;2022-08-07T13:11:36;23.50;99.90
53599;DHT22;39485;45.702;11.364;2022-08-07T13:14:18;23.70;99.90
53599;DHT22;39485;45.702;11.364;2022-08-07T13:23:10;24.00;99.90
53599;DHT22;39485;45.702;11.364;2022-08-07T13:26:40;24.10;99.90
53599;DHT22;39485;45.702;11.364;2022-08-07T13:31:56;24.30;99.90
53599;DHT22;39485;45.702;11.364;2022-08-07T13:40:16;24.40;99.90
53599;DHT22;39485;45.702;11.364;2022-08-07T13:42:47;24.50;99.90
53599;DHT22;39485;45.702;11.364;2022-08-07T13:45:14;24.50;99.90
53599;DHT22;39485;45.702;11.364;2022-08-07T13:47:41;24.60;99.90
53599;DHT22;39485;45.702;11.364;2022-08-07T13:50:08;24.60;99.90
53599;DHT22;39485;45.702;11.364;2022-08-07T13:52:41;24.60;99.90
53599;DHT22;39485;45.702;11.364;2022-08-07T13:55:14;24.60;99.90
53599;DHT22;39485;45.702;11.364;2022-08-07T13:57:43;24.70;99.90
53599;DHT22;39485;45.702;11.364;2022-08-07T14:00:09;24.70;99.90
53599;DHT22;39485;45.702;11.364;2022-08-07T14:02:36;24.90;99.90
53599;DHT22;39485;45.702;11.364;2022-08-07T14:05:12;25.00;99.90
53599;DHT22;39485;45.702;11.364;2022-08-07T14:07:43;25.10;99.90
53599;DHT22;39485;45.702;11.364;2022-08-07T14:10:10;25.30;99.90
53599;DHT22;39485;45.702;11.364;2022-08-07T14:12:55;25.40;99.90
53599;DHT22;39485;45.702;11.364;2022-08-07T14:15:38;25.50;99.90
53599;DHT22;39485;45.702;11.364;2022-08-07T14:20:48;25.60;99.90
53599;DHT22;39485;45.702;11.364;2022-08-07T14:23:21;25.70;99.90
53599;DHT22;39485;45.702;11.364;2022-08-07T14:25:59;25.70;99.90
53599;DHT22;39485;45.702;11.364;2022-08-07T14:28:27;25.80;99.90
53599;DHT22;39485;45.702;11.364;2022-08-07T14:30:55;25.80;99.90
53599;DHT22;39485;45.702;11.364;2022-08-07T14:33:22;25.80;99.90
53599;DHT22;39485;45.702;11.364;2022-08-07T14:35:56;25.80;99.90
53599;DHT22;39485;45.702;11.364;2022-08-07T14:38:25;25.90;99.90
53599;DHT22;39485;45.702;11.364;2022-08-07T14:41:00;25.90;99.90
53599;DHT22;39485;45.702;11.364;2022-08-07T14:43:28;26.00;99.90
53599;DHT22;39485;45.702;11.364;2022-08-07T14:45:57;26.00;99.90
53599;DHT22;39485;45.702;11.364;2022-08-07T14:48:31;26.00;99.90
53599;DHT22;39485;45.702;11.364;2022-08-07T14:50:59;26.10;99.90
53599;DHT22;39485;45.702;11.364;2022-08-07T14:53:29;26.20;99.90
53599;DHT22;39485;45.702;11.364;2022-08-07T14:55:56;26.20;99.70
53599;DHT22;39485;45.702;11.364;2022-08-07T14:58:27;26.20;98.80
53599;DHT22;39485;45.702;11.364;2022-08-07T15:00:57;26.30;98.40
53599;DHT22;39485;45.702;11.364;2022-08-07T15:03:26;26.40;97.70
53599;DHT22;39485;45.702;11.364;2022-08-07T15:05:53;26.40;96.90
53599;DHT22;39485;45.702;11.364;2022-08-07T15:08:26;26.50;96.40
53599;DHT22;39485;45.702;11.364;2022-08-07T15:11:07;26.60;96.40
53599;DHT22;39485;45.702;11.364;2022-08-07T15:13:34;26.60;96.20
53599;DHT22;39485;45.702;11.364;2022-08-07T15:16:05;26.70;95.90
53599;DHT22;39485;45.702;11.364;2022-08-07T15:18:39;26.80;95.30
53599;DHT22;39485;45.702;11.364;2022-08-07T15:21:16;26.90;94.70
53599;DHT22;39485;45.702;11.364;2022-08-07T15:23:45;26.90;93.90
53599;DHT22;39485;45.702;11.364;2022-08-07T15:26:13;27.00;93.50
53599;DHT22;39485;45.702;11.364;2022-08-07T15:28:41;27.00;93.10
53599;DHT22;39485;45.702;11.364;2022-08-07T15:31:11;27.20;92.50
53599;DHT22;39485;45.702;11.364;2022-08-07T15:33:40;27.20;91.90
53599;DHT22;39485;45.702;11.364;2022-08-07T15:36:13;27.30;91.40
53599;DHT22;39485;45.702;11.364;2022-08-07T15:38:39;27.40;90.60
53599;DHT22;39485;45.702;11.364;2022-08-07T15:41:12;27.40;90.00
53599;DHT22;39485;45.702;11.364;2022-08-07T15:43:42;27.50;90.00
53599;DHT22;39485;45.702;11.364;2022-08-07T15:46:23;27.50;89.90
53599;DHT22;39485;45.702;11.364;2022-08-07T15:48:52;27.60;89.50
53599;DHT22;39485;45.702;11.364;2022-08-07T15:51:21;27.60;89.00
53599;DHT22;39485;45.702;11.364;2022-08-07T15:53:51;27.70;88.60
53599;DHT22;39485;45.702;11.364;2022-08-07T15:56:22;27.70;88.10
53599;DHT22;39485;45.702;11.364;2022-08-07T15:58:51;27.80;88.10
53599;DHT22;39485;45.702;11.364;2022-08-07T16:01:24;27.80;87.40
53599;DHT22;39485;45.702;11.364;2022-08-07T16:03:54;27.90;87.00
53599;DHT22;39485;45.702;11.364;2022-08-07T16:06:32;27.90;86.60
53599;DHT22;39485;45.702;11.364;2022-08-07T16:09:02;28.00;85.50
53599;DHT22;39485;45.702;11.364;2022-08-07T16:17:24;28.20;85.40
53599;DHT22;39485;45.702;11.364;2022-08-07T16:20:05;28.20;85.10
53599;DHT22;39485;45.702;11.364;2022-08-07T16:22:54;28.10;85.20
53599;DHT22;39485;45.702;11.364;2022-08-07T16:25:37;28.20;85.60
53599;DHT22;39485;45.702;11.364;2022-08-07T16:28:22;28.10;85.30
53599;DHT22;39485;45.702;11.364;2022-08-07T16:31:46;28.10;85.50
53599;DHT22;39485;45.702;11.364;2022-08-07T16:33:46;28.00;85.70
53599;DHT22;39485;45.702;11.364;2022-08-07T16:50:18;27.80;88.30
53599;DHT22;39485;45.702;11.364;2022-08-07T16:53:04;27.70;89.30
53599;DHT22;39485;45.702;11.364;2022-08-07T16:55:52;27.70;89.10
53599;DHT22;39485;45.702;11.364;2022-08-07T16:58:22;27.60;89.20
53599;DHT22;39485;45.702;11.364;2022-08-07T17:03:51;27.60;89.70
53599;DHT22;39485;45.702;11.364;2022-08-07T17:11:50;27.60;89.20
53599;DHT22;39485;45.702;11.364;2022-08-07T17:16:57;27.50;88.80
53599;DHT22;39485;45.702;11.364;2022-08-07T17:22:25;27.40;88.60
53599;DHT22;39485;45.702;11.364;2022-08-07T17:25:14;27.40;89.30
53599;DHT22;39485;45.702;11.364;2022-08-07T17:28:08;27.40;90.30
53599;DHT22;39485;45.702;11.364;2022-08-07T17:33:33;27.30;91.00
53599;DHT22;39485;45.702;11.364;2022-08-07T17:41:55;27.10;92.40
53599;DHT22;39485;45.702;11.364;2022-08-07T17:44:34;26.90;93.00
53599;DHT22;39485;45.702;11.364;2022-08-07T17:47:18;26.80;93.60
53599;DHT22;39485;45.702;11.364;2022-08-07T17:49:56;26.60;94.10
53599;DHT22;39485;45.702;11.364;2022-08-07T17:52:33;26.50;94.60
53599;DHT22;39485;45.702;11.364;2022-08-07T17:55:04;26.30;94.90
53599;DHT22;39485;45.702;11.364;2022-08-07T17:57:57;26.10;95.40
53599;DHT22;39485;45.702;11.364;2022-08-07T18:00:29;26.00;96.00
53599;DHT22;39485;45.702;11.364;2022-08-07T18:03:09;25.80;96.60
53599;DHT22;39485;45.702;11.364;2022-08-07T18:05:51;25.60;97.20
53599;DHT22;39485;45.702;11.364;2022-08-07T18:08:35;25.40;97.80
53599;DHT22;39485;45.702;11.364;2022-08-07T18:11:19;25.20;98.30
53599;DHT22;39485;45.702;11.364;2022-08-07T18:16:32;25.00;99.70
53599;DHT22;39485;45.702;11.364;2022-08-07T18:19:09;24.90;99.90
53599;DHT22;39485;45.702;11.364;2022-08-07T18:21:43;24.80;99.90
53599;DHT22;39485;45.702;11.364;2022-08-07T18:24:31;24.70;99.90
53599;DHT22;39485;45.702;11.364;2022-08-07T18:35:35;24.40;99.90
53599;DHT22;39485;45.702;11.364;2022-08-07T18:41:10;24.30;99.90
53599;DHT22;39485;45.702;11.364;2022-08-07T18:43:48;24.20;99.90
53599;DHT22;39485;45.702;11.364;2022-08-07T18:46:22;24.20;99.90
53599;DHT22;39485;45.702;11.364;2022-08-07T18:48:59;24.10;99.90
53599;DHT22;39485;45.702;11.364;2022-08-07T18:54:36;24.00;99.90
53599;DHT22;39485;45.702;11.364;2022-08-07T19:00:04;23.90;99.90
53599;DHT22;39485;45.702;11.364;2022-08-07T19:03:11;23.80;99.90
53599;DHT22;39485;45.702;11.364;2022-08-07T19:05:44;23.80;99.90
53599;DHT22;39485;45.702;11.364;2022-08-07T19:08:28;23.70;99.90
53599;DHT22;39485;45.702;11.364;2022-08-07T19:11:07;23.70;99.90
53599;DHT22;39485;45.702;11.364;2022-08-07T19:16:30;23.60;99.90
53599;DHT22;39485;45.702;11.364;2022-08-07T19:19:10;23.60;99.90
53599;DHT22;39485;45.702;11.364;2022-08-07T19:21:58;23.60;99.90
53599;DHT22;39485;45.702;11.364;2022-08-07T19:24:41;23.60;99.90